Sao Romao, Brazil
Current Conditions -  °F | °C
As of 11:00 AM on Tuesday 21 Oct 2014 (Local Time) from SBMK Reporting Station
Light Rain Light Rain  
Wind Chill: 70°   Ceiling: Unl
Heat Index: 70°   Visibility: 4mi
Dew Point: 66°   Wind: 6mph
Humidity: 88%   Direction: 160°SSE
Pressure: 30.09"   Gusts: NA
Location:  16.37°S, 45.07°W
Report Text: SBMK 211300Z 16005KT 6000 -RA NSC 21/19 Q1019 RERA
Loading
Personal Weather Stations






























Interactive Weather Map
Tropical Storm Tracking
New forecast layout! Learn more

10-Day Weather Forecast

Advertisements
Track Severe Weather on mobile